Time;durP1;ratioP1;P1;durP2;ratioP2;P2;SDS_P1;SDS_P2;PMS_P1;PMS_P2;Temp;Humidity;BMP_temperature;BMP_pressure;BME280_temperature;BME280_humidity;BME280_pressure;Samples;Min_cycle;Max_cycle;Signal;HPM_P1;HPM_P2
2023/09/10 00:00:23;;;;;;;14.27;13.17;;;18.50;68.10;;;;;;6217593;28;20236;-83
2023/09/10 00:03:27;;;;;;;15.27;13.97;;;18.50;68.20;;;;;;6195933;28;20266;-84
2023/09/10 00:06:32;;;;;;;15.13;13.83;;;18.50;68.30;;;;;;6214463;28;20239;-82
2023/09/10 00:09:37;;;;;;;14.60;13.30;;;18.40;68.60;;;;;;6200467;28;20339;-81
2023/09/10 00:12:42;;;;;;;16.13;14.73;;;18.40;68.70;;;;;;6193813;28;20748;-80
2023/09/10 00:15:45;;;;;;;15.77;14.47;;;18.40;68.70;;;;;;6208065;28;20688;-84
2023/09/10 00:18:48;;;;;;;15.13;13.87;;;18.30;68.70;;;;;;6204982;28;20728;-83
2023/09/10 00:21:51;;;;;;;14.43;13.33;;;18.30;68.80;;;;;;6207822;28;20315;-83
2023/09/10 00:24:54;;;;;;;14.50;13.40;;;18.20;69.00;;;;;;6205213;28;20235;-84
2023/09/10 00:28:02;;;;;;;14.43;13.37;;;18.20;69.10;;;;;;6209354;28;20627;-83
2023/09/10 00:31:05;;;;;;;14.27;13.10;;;18.20;69.30;;;;;;6201521;28;20279;-83
2023/09/10 00:34:08;;;;;;;16.63;15.23;;;18.20;69.40;;;;;;6198064;28;20231;-82
2023/09/10 00:37:12;;;;;;;15.63;14.33;;;18.10;69.50;;;;;;6211611;28;20238;-83
2023/09/10 00:40:15;;;;;;;17.13;15.67;;;18.10;69.60;;;;;;6216207;28;20250;-84
2023/09/10 00:43:20;;;;;;;17.83;16.20;;;18.10;70.00;;;;;;6208221;28;20235;-85
2023/09/10 00:46:23;;;;;;;17.70;16.27;;;18.10;70.10;;;;;;6203074;28;20240;-84
2023/09/10 00:49:27;;;;;;;16.97;15.53;;;18.10;70.00;;;;;;6216050;28;20257;-82
2023/09/10 00:52:31;;;;;;;17.60;15.77;;;18.10;70.00;;;;;;6205797;28;20242;-83
2023/09/10 00:55:34;;;;;;;17.07;15.47;;;18.00;70.10;;;;;;6201021;28;20322;-82
2023/09/10 00:58:40;;;;;;;18.00;16.57;;;18.00;70.10;;;;;;6190527;28;20744;-81
2023/09/10 01:01:44;;;;;;;18.10;16.33;;;18.00;70.10;;;;;;6183682;28;20338;-84
2023/09/10 01:04:47;;;;;;;17.20;15.70;;;18.00;70.20;;;;;;6201940;28;20820;-84
2023/09/10 01:07:50;;;;;;;17.10;15.40;;;18.00;70.20;;;;;;6207257;28;20938;-85
2023/09/10 01:10:59;;;;;;;16.53;15.23;;;18.00;70.20;;;;;;6200938;28;20234;-84
2023/09/10 01:14:11;;;;;;;15.33;14.13;;;17.90;70.20;;;;;;6214589;28;20288;-85
2023/09/10 01:17:20;;;;;;;15.40;14.20;;;17.80;70.30;;;;;;6203495;28;20850;-84
2023/09/10 01:20:39;;;;;;;16.43;15.10;;;17.80;70.40;;;;;;6206769;28;20243;-82
2023/09/10 01:23:52;;;;;;;17.00;15.40;;;17.80;70.60;;;;;;6206948;28;20251;-85
2023/09/10 01:26:57;;;;;;;16.90;15.43;;;17.70;71.00;;;;;;6206349;28;20235;-81
2023/09/10 01:30:00;;;;;;;16.10;14.80;;;17.60;71.10;;;;;;6214262;28;20250;-82
2023/09/10 01:33:10;;;;;;;15.63;14.43;;;17.60;71.30;;;;;;6214985;28;20914;-79
2023/09/10 01:36:21;;;;;;;16.10;14.73;;;17.50;71.50;;;;;;6214701;28;20223;-81
2023/09/10 01:39:29;;;;;;;16.10;14.57;;;17.50;71.50;;;;;;6196899;28;20318;-80
2023/09/10 01:42:35;;;;;;;16.23;14.83;;;17.50;71.50;;;;;;6204142;28;20248;-83
2023/09/10 01:45:39;;;;;;;16.10;14.87;;;17.40;71.60;;;;;;6197540;28;20330;-81
2023/09/10 01:48:42;;;;;;;16.07;14.60;;;17.40;71.70;;;;;;6197354;28;20250;-82
2023/09/10 01:51:45;;;;;;;16.27;14.97;;;17.30;71.80;;;;;;6206074;28;20720;-82
2023/09/10 01:54:48;;;;;;;15.77;14.57;;;17.30;71.90;;;;;;6214351;28;20239;-83
2023/09/10 01:57:55;;;;;;;15.93;14.70;;;17.20;72.00;;;;;;6198103;28;20291;-80
2023/09/10 02:00:58;;;;;;;18.27;16.60;;;17.20;72.20;;;;;;6210650;28;20232;-84
2023/09/10 02:04:01;;;;;;;16.13;14.80;;;17.20;72.20;;;;;;6206833;28;20239;-82
2023/09/10 02:07:04;;;;;;;17.47;16.00;;;17.20;72.20;;;;;;6213586;28;20234;-82
2023/09/10 02:10:08;;;;;;;16.57;15.17;;;17.20;72.30;;;;;;6200155;28;20239;-82
2023/09/10 02:13:14;;;;;;;16.63;15.33;;;17.20;72.50;;;;;;6205161;28;20224;-82
2023/09/10 02:16:17;;;;;;;16.37;15.17;;;17.10;72.60;;;;;;6200751;28;20228;-80
2023/09/10 02:19:20;;;;;;;16.70;15.30;;;17.00;72.70;;;;;;6201098;28;20245;-82
2023/09/10 02:22:24;;;;;;;17.13;15.73;;;17.00;72.60;;;;;;6206272;28;20247;-84
2023/09/10 02:25:27;;;;;;;17.70;16.30;;;17.00;72.50;;;;;;6198625;28;20255;-85
2023/09/10 02:28:35;;;;;;;16.77;15.37;;;17.00;72.70;;;;;;6209066;28;20231;-82
2023/09/10 02:31:40;;;;;;;15.93;14.73;;;17.00;72.80;;;;;;6212020;28;20239;-82
2023/09/10 02:34:43;;;;;;;16.13;14.90;;;16.90;72.80;;;;;;6198101;28;20695;-82
2023/09/10 02:37:46;;;;;;;15.87;14.50;;;16.90;72.80;;;;;;6212321;28;20286;-81
2023/09/10 02:40:50;;;;;;;16.00;14.70;;;16.90;73.00;;;;;;6206374;28;20239;-82
2023/09/10 02:43:56;;;;;;;15.80;14.60;;;16.90;73.10;;;;;;6198446;28;20860;-82
2023/09/10 02:46:59;;;;;;;16.60;15.20;;;16.90;73.10;;;;;;6207431;28;20246;-82
2023/09/10 02:50:02;;;;;;;16.93;15.50;;;16.90;73.10;;;;;;6211773;28;20389;-82
2023/09/10 02:53:05;;;;;;;17.63;16.03;;;16.90;73.20;;;;;;6213251;28;20675;-85
2023/09/10 02:56:19;;;;;;;16.53;15.13;;;16.80;73.30;;;;;;6210180;28;20235;-82
2023/09/10 02:59:26;;;;;;;17.60;16.10;;;16.80;73.40;;;;;;6209595;28;20702;-82
2023/09/10 03:02:29;;;;;;;16.90;15.50;;;16.80;73.40;;;;;;6207795;28;20247;-84
2023/09/10 03:05:34;;;;;;;15.83;14.63;;;16.80;73.50;;;;;;6205593;28;20710;-84
2023/09/10 03:08:37;;;;;;;15.70;14.60;;;16.80;73.50;;;;;;6213339;28;20739;-84
2023/09/10 03:11:42;;;;;;;16.03;14.67;;;16.80;73.70;;;;;;6213335;28;20241;-83
2023/09/10 03:14:46;;;;;;;16.27;14.87;;;16.70;73.70;;;;;;6208350;28;20235;-80
2023/09/10 03:17:49;;;;;;;15.87;14.77;;;16.70;73.80;;;;;;6202846;28;20239;-82
2023/09/10 03:20:52;;;;;;;15.70;14.50;;;16.70;73.90;;;;;;6208527;28;20255;-80
2023/09/10 03:23:57;;;;;;;16.57;15.27;;;16.70;74.00;;;;;;6222520;28;20247;-83
2023/09/10 03:27:00;;;;;;;16.10;14.80;;;16.70;74.10;;;;;;6202733;28;20232;-81
2023/09/10 03:30:06;;;;;;;16.40;15.07;;;16.60;74.20;;;;;;6204399;28;20302;-84
2023/09/10 03:33:10;;;;;;;16.77;15.43;;;16.60;74.10;;;;;;6201563;28;20235;-83
2023/09/10 03:36:16;;;;;;;16.30;15.10;;;16.60;74.20;;;;;;6215657;28;20242;-83
2023/09/10 03:39:19;;;;;;;16.60;15.37;;;16.60;74.30;;;;;;6210145;28;20386;-83
2023/09/10 03:42:22;;;;;;;16.43;15.10;;;16.50;74.30;;;;;;6211343;28;20235;-83
2023/09/10 03:45:27;;;;;;;16.57;15.07;;;16.50;74.20;;;;;;6202728;28;20840;-82
2023/09/10 03:48:30;;;;;;;18.33;16.70;;;16.50;74.40;;;;;;6209294;28;20736;-82
2023/09/10 03:51:33;;;;;;;16.33;15.13;;;16.50;74.40;;;;;;6230494;28;20234;-76
2023/09/10 03:54:36;;;;;;;16.27;14.87;;;16.40;74.30;;;;;;6232717;28;20227;-77
2023/09/10 03:57:39;;;;;;;16.00;14.80;;;16.40;74.40;;;;;;6226521;28;20248;-78
2023/09/10 04:00:44;;;;;;;17.53;16.03;;;16.40;74.30;;;;;;6223545;28;20296;-80
2023/09/10 04:03:49;;;;;;;16.73;15.43;;;16.40;74.40;;;;;;6218717;28;20239;-79
2023/09/10 04:06:52;;;;;;;17.27;15.87;;;16.30;74.50;;;;;;6216292;28;20604;-79
2023/09/10 04:09:55;;;;;;;15.70;14.60;;;16.30;74.70;;;;;;6211689;28;20258;-78
2023/09/10 04:12:58;;;;;;;14.93;13.80;;;16.30;74.70;;;;;;6223664;28;20266;-79
2023/09/10 04:16:05;;;;;;;16.60;15.20;;;16.20;74.80;;;;;;6206404;28;20747;-79
2023/09/10 04:19:09;;;;;;;16.33;14.93;;;16.20;74.80;;;;;;6217212;28;20391;-80
2023/09/10 04:22:13;;;;;;;15.33;14.03;;;16.20;74.90;;;;;;6221765;28;20724;-79
2023/09/10 04:25:16;;;;;;;16.53;15.03;;;16.20;74.90;;;;;;6206509;28;20374;-79
2023/09/10 04:28:21;;;;;;;15.53;14.23;;;16.20;74.90;;;;;;6209126;28;20804;-78
2023/09/10 04:31:26;;;;;;;15.93;14.70;;;16.10;75.00;;;;;;6207224;28;20315;-79
2023/09/10 04:34:29;;;;;;;15.80;14.43;;;16.10;75.10;;;;;;6212861;28;20235;-78
2023/09/10 04:37:34;;;;;;;15.90;14.70;;;16.10;75.10;;;;;;6210412;28;20235;-77
2023/09/10 04:40:37;;;;;;;14.43;13.43;;;16.10;75.10;;;;;;6207026;28;20769;-78
2023/09/10 04:43:41;;;;;;;16.57;15.07;;;16.10;75.20;;;;;;6213192;28;20250;-80
2023/09/10 04:46:45;;;;;;;16.13;14.87;;;16.10;75.30;;;;;;6212390;28;20892;-79
2023/09/10 04:49:48;;;;;;;16.87;15.27;;;16.10;75.30;;;;;;6207845;28;20683;-77
2023/09/10 04:52:53;;;;;;;16.77;15.27;;;16.10;75.30;;;;;;6208764;28;20262;-79
2023/09/10 04:55:56;;;;;;;16.67;15.27;;;16.10;75.40;;;;;;6197461;28;20307;-77
2023/09/10 04:58:59;;;;;;;16.53;15.17;;;16.10;75.40;;;;;;6210616;28;20722;-79
2023/09/10 05:02:05;;;;;;;16.80;15.50;;;16.10;75.40;;;;;;6207794;28;20239;-79
2023/09/10 05:05:09;;;;;;;15.47;14.27;;;16.20;75.40;;;;;;6209977;28;20771;-79
2023/09/10 05:08:12;;;;;;;16.10;14.90;;;16.20;75.30;;;;;;6210309;28;20281;-77
2023/09/10 05:11:19;;;;;;;15.90;14.60;;;16.20;75.20;;;;;;6204827;28;20235;-78
2023/09/10 05:14:22;;;;;;;16.07;14.93;;;16.20;75.20;;;;;;6208651;28;20227;-78
2023/09/10 05:17:26;;;;;;;17.67;16.17;;;16.30;75.10;;;;;;6205194;28;20242;-75
2023/09/10 05:20:31;;;;;;;16.23;15.03;;;16.30;75.10;;;;;;6205485;28;20235;-77
2023/09/10 05:23:35;;;;;;;15.40;14.20;;;16.40;75.00;;;;;;6212506;28;20254;-77
2023/09/10 05:26:38;;;;;;;19.13;17.43;;;16.40;75.00;;;;;;6207984;28;20741;-77
2023/09/10 05:29:42;;;;;;;17.33;16.00;;;16.50;75.00;;;;;;6211337;28;20243;-79
2023/09/10 05:32:46;;;;;;;18.70;17.10;;;16.50;75.00;;;;;;6216095;28;20279;-78
2023/09/10 05:35:56;;;;;;;19.67;17.90;;;16.60;74.90;;;;;;6210976;28;20270;-78
2023/09/10 05:38:59;;;;;;;17.60;16.20;;;16.70;74.70;;;;;;6207470;28;20239;-77
2023/09/10 05:42:02;;;;;;;16.63;15.43;;;16.70;74.60;;;;;;6210813;28;20305;-78
2023/09/10 05:45:08;;;;;;;18.17;16.60;;;16.80;74.50;;;;;;6213770;28;20242;-78
2023/09/10 05:48:13;;;;;;;16.83;15.53;;;16.90;74.40;;;;;;6204620;28;20638;-79
2023/09/10 05:51:16;;;;;;;16.87;15.47;;;16.90;74.30;;;;;;6201898;28;20332;-77
2023/09/10 05:54:19;;;;;;;17.63;16.23;;;17.00;74.30;;;;;;6218923;28;20262;-80
2023/09/10 05:57:22;;;;;;;15.27;14.27;;;17.00;74.20;;;;;;6205385;28;20283;-78
2023/09/10 06:00:25;;;;;;;17.37;16.07;;;17.20;74.00;;;;;;6207453;28;20719;-78
2023/09/10 06:03:31;;;;;;;17.73;16.40;;;17.30;73.80;;;;;;6211942;28;20621;-80
2023/09/10 06:06:37;;;;;;;18.60;17.10;;;17.40;73.70;;;;;;6211503;28;20731;-74
2023/09/10 06:09:40;;;;;;;22.63;20.70;;;17.80;73.20;;;;;;6211740;28;20283;-80
2023/09/10 06:12:44;;;;;;;19.33;17.73;;;18.00;71.80;;;;;;6210336;28;20326;-82
2023/09/10 06:15:47;;;;;;;17.87;16.47;;;18.10;71.50;;;;;;6206596;28;20265;-76
2023/09/10 06:18:52;;;;;;;17.77;16.27;;;18.30;71.80;;;;;;6207027;28;20266;-77
2023/09/10 06:21:55;;;;;;;17.87;16.47;;;18.80;70.50;;;;;;6202741;28;20322;-79
2023/09/10 06:24:58;;;;;;;16.80;15.50;;;19.10;69.60;;;;;;6193049;28;20240;-80
2023/09/10 06:28:01;;;;;;;18.17;16.70;;;19.20;69.00;;;;;;6184320;28;20244;-76
2023/09/10 06:31:06;;;;;;;17.97;16.43;;;19.30;68.60;;;;;;6190772;28;20240;-76
2023/09/10 06:34:10;;;;;;;20.13;18.37;;;19.30;68.40;;;;;;6203940;28;20238;-77
2023/09/10 06:37:18;;;;;;;18.60;17.20;;;19.20;68.30;;;;;;6200144;28;20711;-75
2023/09/10 06:40:34;;;;;;;19.13;17.30;;;19.30;68.40;;;;;;6208898;28;20227;-76
2023/09/10 06:43:37;;;;;;;18.97;17.37;;;19.30;68.30;;;;;;6215197;28;20269;-75
2023/09/10 06:46:40;;;;;;;19.17;17.57;;;19.40;68.20;;;;;;6211077;28;20302;-76
2023/09/10 06:49:44;;;;;;;17.43;16.00;;;19.50;68.10;;;;;;6211343;28;20235;-75
2023/09/10 06:52:47;;;;;;;20.87;18.93;;;19.90;67.40;;;;;;6198398;28;20236;-77
2023/09/10 06:55:51;;;;;;;19.00;17.50;;;20.00;66.90;;;;;;6177719;28;20240;-77
2023/09/10 06:58:55;;;;;;;20.73;19.00;;;20.10;66.70;;;;;;6187221;28;20764;-76
2023/09/10 07:01:58;;;;;;;17.20;15.80;;;20.30;66.50;;;;;;6208075;28;20250;-77
2023/09/10 07:05:02;;;;;;;18.83;17.07;;;20.70;66.00;;;;;;6209808;28;20832;-77
2023/09/10 07:08:06;;;;;;;18.20;16.57;;;21.00;65.10;;;;;;6205998;28;20269;-77
2023/09/10 07:11:09;;;;;;;19.07;17.50;;;21.00;64.80;;;;;;6202349;28;20261;-77
2023/09/10 07:14:13;;;;;;;18.57;17.07;;;21.00;64.70;;;;;;6202049;28;20267;-76
2023/09/10 07:17:16;;;;;;;17.50;15.93;;;21.00;64.70;;;;;;6204687;28;20235;-76
2023/09/10 07:20:20;;;;;;;15.83;14.43;;;21.00;64.80;;;;;;6224655;28;20231;-75
2023/09/10 07:23:24;;;;;;;15.70;14.23;;;21.00;64.40;;;;;;6206055;28;20876;-78
2023/09/10 07:26:27;;;;;;;16.17;14.73;;;21.00;64.10;;;;;;6209792;28;20228;-76
2023/09/10 07:29:30;;;;;;;17.07;15.37;;;21.10;63.80;;;;;;6206244;28;20322;-77
2023/09/10 07:32:33;;;;;;;16.73;15.13;;;21.10;63.70;;;;;;6206610;28;20428;-75
2023/09/10 07:35:38;;;;;;;14.17;13.17;;;21.20;63.40;;;;;;6203290;28;20239;-75
2023/09/10 07:38:41;;;;;;;12.40;11.60;;;21.30;63.20;;;;;;6208591;28;20244;-76
2023/09/10 07:41:44;;;;;;;15.90;14.43;;;21.40;62.80;;;;;;6209125;28;20235;-76
2023/09/10 07:44:47;;;;;;;13.87;12.73;;;21.50;62.40;;;;;;6207321;28;20251;-74
2023/09/10 07:47:50;;;;;;;12.53;11.63;;;21.50;62.10;;;;;;6211238;28;20296;-76
2023/09/10 07:50:56;;;;;;;14.20;12.93;;;21.70;62.00;;;;;;6200034;28;20283;-75
2023/09/10 07:53:59;;;;;;;13.90;12.70;;;21.70;61.80;;;;;;6201340;28;20646;-75
2023/09/10 07:57:03;;;;;;;14.13;13.00;;;21.90;61.80;;;;;;6213524;28;20324;-77
2023/09/10 08:00:08;;;;;;;14.43;13.17;;;21.90;61.90;;;;;;6210376;28;20323;-76
2023/09/10 08:03:13;;;;;;;13.87;12.70;;;21.90;61.70;;;;;;6212027;28;20246;-74
2023/09/10 08:06:20;;;;;;;15.20;14.03;;;22.10;61.30;;;;;;6213607;28;20236;-77
2023/09/10 08:09:23;;;;;;;14.70;13.50;;;22.20;60.90;;;;;;6207275;28;20621;-74
2023/09/10 08:12:27;;;;;;;12.07;11.27;;;22.30;60.70;;;;;;6206884;28;20729;-74
2023/09/10 08:15:30;;;;;;;14.30;13.20;;;22.50;60.80;;;;;;6203703;28;20389;-76
2023/09/10 08:18:33;;;;;;;13.87;12.77;;;22.50;60.70;;;;;;6211173;28;20254;-76
2023/09/10 08:21:38;;;;;;;13.40;12.17;;;22.70;59.70;;;;;;6206512;28;20310;-75
2023/09/10 08:24:41;;;;;;;12.57;11.63;;;22.80;59.50;;;;;;6208469;28;20236;-75
2023/09/10 08:27:44;;;;;;;14.30;13.17;;;23.00;58.70;;;;;;6213395;28;20278;-74
2023/09/10 08:30:47;;;;;;;11.63;10.60;;;23.10;58.90;;;;;;6210019;28;20239;-74
2023/09/10 08:33:50;;;;;;;13.57;12.50;;;23.30;58.60;;;;;;6210931;28;20235;-74
2023/09/10 08:36:55;;;;;;;12.00;11.17;;;23.40;58.50;;;;;;6215809;28;20267;-76
2023/09/10 08:39:58;;;;;;;12.37;11.13;;;23.60;58.30;;;;;;6218092;28;20249;-75
2023/09/10 08:43:10;;;;;;;11.37;10.57;;;23.70;57.30;;;;;;6209471;28;20726;-76
2023/09/10 08:46:14;;;;;;;11.50;10.60;;;23.80;56.80;;;;;;6200711;28;20232;-75
2023/09/10 08:49:19;;;;;;;11.20;10.40;;;23.90;56.30;;;;;;6214380;28;20834;-74
2023/09/10 08:52:24;;;;;;;13.90;12.70;;;24.00;56.10;;;;;;6207266;28;20243;-74
2023/09/10 08:55:27;;;;;;;12.10;11.00;;;24.20;55.90;;;;;;6219792;28;20235;-76
2023/09/10 08:58:33;;;;;;;13.17;11.97;;;24.30;55.80;;;;;;6206118;28;20236;-76
2023/09/10 09:01:36;;;;;;;12.20;11.03;;;24.40;55.40;;;;;;6204114;28;20255;-76
2023/09/10 09:04:40;;;;;;;11.80;10.77;;;24.50;55.10;;;;;;6195085;28;20243;-73
2023/09/10 09:07:46;;;;;;;11.57;10.77;;;24.70;54.70;;;;;;6213291;28;20329;-76
2023/09/10 09:10:51;;;;;;;12.63;11.70;;;24.90;54.10;;;;;;6200533;28;20306;-76
2023/09/10 09:13:56;;;;;;;11.03;10.13;;;25.00;54.30;;;;;;6197915;28;20272;-76
2023/09/10 09:17:00;;;;;;;11.90;11.00;;;25.20;53.50;;;;;;6217624;28;20314;-75
2023/09/10 09:20:08;;;;;;;11.33;10.43;;;25.40;53.50;;;;;;6214862;28;20328;-74
2023/09/10 09:23:20;;;;;;;10.97;10.07;;;25.60;53.30;;;;;;6206970;28;20235;-79
2023/09/10 09:26:25;;;;;;;10.63;9.87;;;25.70;53.10;;;;;;6199372;28;20254;-74
2023/09/10 09:29:29;;;;;;;10.30;9.70;;;25.80;52.50;;;;;;6207294;28;20240;-75
2023/09/10 09:32:34;;;;;;;10.33;9.73;;;26.00;52.50;;;;;;6206858;28;20254;-77
2023/09/10 09:35:38;;;;;;;10.23;9.53;;;26.10;52.70;;;;;;6215252;28;20240;-76
2023/09/10 09:38:45;;;;;;;10.13;9.53;;;26.40;51.80;;;;;;6217150;28;20240;-78
2023/09/10 09:41:51;;;;;;;10.90;10.17;;;26.50;51.80;;;;;;6209245;28;20226;-76
2023/09/10 09:44:55;;;;;;;9.80;9.10;;;26.60;51.30;;;;;;6214412;28;20227;-77
2023/09/10 09:47:58;;;;;;;9.50;8.90;;;26.70;50.00;;;;;;6212462;28;20247;-74
2023/09/10 09:51:03;;;;;;;9.07;8.47;;;26.90;49.70;;;;;;6206117;28;20231;-76
2023/09/10 09:54:09;;;;;;;8.30;7.70;;;27.00;49.20;;;;;;6203620;28;20228;-77
2023/09/10 09:57:12;;;;;;;8.10;7.40;;;27.10;48.00;;;;;;6216913;28;20301;-77
2023/09/10 10:00:16;;;;;;;8.33;7.73;;;27.20;47.80;;;;;;6213295;28;20319;-76
2023/09/10 10:03:20;;;;;;;8.67;8.03;;;27.40;48.00;;;;;;6201327;28;21000;-77
2023/09/10 10:06:24;;;;;;;9.70;9.03;;;27.50;47.50;;;;;;6209838;28;20740;-77
2023/09/10 10:09:36;;;;;;;9.37;8.47;;;27.60;46.90;;;;;;6205723;28;20255;-77
2023/09/10 10:12:44;;;;;;;9.88;9.13;;;27.80;46.50;;;;;;6215190;28;20236;-81
2023/09/10 10:15:54;;;;;;;8.70;8.10;;;27.90;45.90;;;;;;6210081;28;20228;-79
2023/09/10 10:19:00;;;;;;;8.82;8.25;;;28.00;45.80;;;;;;6206954;28;20750;-77
2023/09/10 10:22:05;;;;;;;9.20;8.67;;;28.20;45.80;;;;;;6209488;28;20247;-78
2023/09/10 10:25:11;;;;;;;8.52;7.82;;;28.40;45.40;;;;;;6212037;28;20663;-78
2023/09/10 10:28:14;;;;;;;7.47;7.07;;;28.60;44.80;;;;;;6216888;28;20770;-81
2023/09/10 10:31:19;;;;;;;6.93;6.60;;;28.70;45.20;;;;;;6210780;28;20251;-78
2023/09/10 10:34:24;;;;;;;7.07;6.68;;;28.90;45.00;;;;;;6190624;28;20246;-77
2023/09/10 10:37:35;;;;;;;7.88;7.40;;;29.00;45.50;;;;;;6199584;28;20263;-78
2023/09/10 10:40:44;;;;;;;7.22;6.93;;;28.90;43.80;;;;;;6212744;28;20318;-76
2023/09/10 10:43:51;;;;;;;7.78;7.25;;;29.00;45.30;;;;;;6203287;28;20235;-80
2023/09/10 10:46:59;;;;;;;6.97;6.60;;;29.10;43.40;;;;;;6207739;28;20901;-82
2023/09/10 10:50:05;;;;;;;6.47;6.07;;;29.10;43.20;;;;;;6211995;28;20312;-78
2023/09/10 10:53:16;;;;;;;6.13;5.82;;;29.20;43.00;;;;;;6205223;28;20227;-78
2023/09/10 10:56:21;;;;;;;7.28;5.68;;;29.30;42.80;;;;;;6204675;28;20234;-77
2023/09/10 10:59:25;;;;;;;7.35;6.57;;;29.40;42.10;;;;;;6201342;28;20251;-78
2023/09/10 11:02:28;;;;;;;6.35;5.90;;;29.50;42.10;;;;;;6196071;28;20659;-77
2023/09/10 11:06:07;;;;;;;7.15;6.55;;;29.50;42.20;;;;;;6204251;28;20831;-76
2023/09/10 11:09:35;;;;;;;10.00;9.05;;;29.60;41.90;;;;;;6199031;28;20224;-77
2023/09/10 11:12:40;;;;;;;10.00;9.35;;;29.70;41.90;;;;;;6201080;28;20244;-76
2023/09/10 11:16:16;;;;;;;7.45;7.05;;;29.70;41.60;;;;;;6211999;28;20318;-76
2023/09/10 11:19:44;;;;;;;6.55;6.15;;;29.90;41.90;;;;;;6201106;28;20244;-78
2023/09/10 11:23:08;;;;;;;7.35;6.85;;;29.50;42.00;;;;;;6195838;28;20242;-78
2023/09/10 11:26:31;;;;;;;6.68;6.18;;;29.30;42.70;;;;;;6204266;28;20732;-78
2023/09/10 11:29:36;;;;;;;6.70;6.40;;;29.20;42.70;;;;;;6210224;28;20274;-78
2023/09/10 11:32:39;;;;;;;6.60;6.15;;;29.10;42.40;;;;;;6198487;28;20301;-77
2023/09/10 11:35:53;;;;;;;6.63;6.22;;;29.00;41.50;;;;;;6195366;28;20741;-78
2023/09/10 11:38:56;;;;;;;7.07;6.55;;;29.10;42.50;;;;;;6195159;28;20633;-75
2023/09/10 11:42:01;;;;;;;6.53;6.13;;;29.20;42.40;;;;;;6213118;28;20806;-76
2023/09/10 11:45:08;;;;;;;8.05;6.47;;;29.30;41.70;;;;;;6212172;28;20285;-76
2023/09/10 11:48:12;;;;;;;7.40;6.95;;;29.50;41.10;;;;;;6209717;28;20231;-77
2023/09/10 11:51:16;;;;;;;7.22;6.78;;;29.40;42.50;;;;;;6210955;28;20743;-76
2023/09/10 11:54:20;;;;;;;6.75;6.35;;;29.40;43.00;;;;;;6216457;28;20703;-75
2023/09/10 11:57:23;;;;;;;7.18;6.70;;;29.50;42.80;;;;;;6209336;28;20239;-76
2023/09/10 12:00:28;;;;;;;7.15;6.65;;;29.70;42.50;;;;;;6210317;28;20879;-76
2023/09/10 12:03:31;;;;;;;7.00;6.47;;;29.50;41.10;;;;;;6224173;28;20258;-77
2023/09/10 12:06:34;;;;;;;6.97;6.57;;;29.40;41.00;;;;;;6216413;28;20250;-77
2023/09/10 12:09:37;;;;;;;6.75;6.25;;;29.50;41.90;;;;;;6209476;28;20246;-75
2023/09/10 12:12:43;;;;;;;7.47;7.07;;;29.70;40.70;;;;;;6209039;28;20909;-76
2023/09/10 12:15:47;;;;;;;6.65;6.25;;;29.70;42.00;;;;;;6197019;28;20265;-75
2023/09/10 12:18:51;;;;;;;7.38;6.88;;;29.70;41.30;;;;;;6213559;28;20244;-77
2023/09/10 12:21:56;;;;;;;6.95;6.60;;;29.60;42.10;;;;;;6217958;28;20915;-77
2023/09/10 12:24:59;;;;;;;7.03;6.60;;;29.50;41.50;;;;;;6211939;28;20391;-77
2023/09/10 12:28:02;;;;;;;7.47;6.97;;;29.80;42.20;;;;;;6213022;28;20255;-76
2023/09/10 12:31:07;;;;;;;6.93;6.30;;;30.00;42.20;;;;;;6213892;28;20258;-76
2023/09/10 12:34:14;;;;;;;7.00;6.30;;;30.10;41.90;;;;;;6214940;28;20235;-78
2023/09/10 12:37:17;;;;;;;6.25;5.88;;;30.10;40.90;;;;;;6200542;28;20231;-78
2023/09/10 12:40:20;;;;;;;6.43;6.13;;;30.20;42.00;;;;;;6206154;28;20232;-79
2023/09/10 12:43:24;;;;;;;6.35;5.95;;;30.30;41.40;;;;;;6213471;28;20794;-76
2023/09/10 12:46:29;;;;;;;6.95;6.53;;;30.40;41.10;;;;;;6211251;28;20242;-78
2023/09/10 12:49:32;;;;;;;6.15;5.85;;;30.40;41.50;;;;;;6212910;28;20278;-78
2023/09/10 12:52:36;;;;;;;6.82;6.45;;;30.50;41.80;;;;;;6207503;28;20881;-79
2023/09/10 12:55:39;;;;;;;6.93;6.43;;;30.50;41.80;;;;;;6216701;28;20231;-79
2023/09/10 12:58:45;;;;;;;7.47;6.82;;;30.00;42.20;;;;;;6215561;28;20326;-79
2023/09/10 13:01:50;;;;;;;7.25;6.75;;;30.10;41.40;;;;;;6209533;28;20379;-77
2023/09/10 13:04:55;;;;;;;6.53;6.22;;;30.30;41.60;;;;;;6210443;28;20241;-78
2023/09/10 13:07:59;;;;;;;6.60;6.07;;;30.30;41.50;;;;;;6212411;28;20397;-79
2023/09/10 13:11:03;;;;;;;7.32;6.85;;;30.40;40.70;;;;;;6210012;28;20366;-78
2023/09/10 13:14:06;;;;;;;6.47;6.00;;;30.30;41.40;;;;;;6215646;28;20610;-78
2023/09/10 13:17:10;;;;;;;5.95;5.75;;;30.40;41.50;;;;;;6206768;28;20231;-79
2023/09/10 13:20:14;;;;;;;7.07;6.55;;;30.50;42.10;;;;;;6202978;28;20681;-80
2023/09/10 13:23:17;;;;;;;7.10;6.50;;;30.40;42.20;;;;;;6213560;28;20228;-80
2023/09/10 13:26:22;;;;;;;6.78;6.38;;;30.40;41.20;;;;;;6215958;28;20241;-78
2023/09/10 13:29:25;;;;;;;6.38;5.97;;;30.50;42.20;;;;;;6207755;28;20236;-78
2023/09/10 13:32:29;;;;;;;6.43;5.93;;;30.50;42.30;;;;;;6210085;28;20236;-80
2023/09/10 13:35:37;;;;;;;6.55;6.15;;;30.50;42.10;;;;;;6206753;28;20255;-80
2023/09/10 13:38:40;;;;;;;6.93;6.25;;;30.50;41.50;;;;;;6212769;28;20292;-79
2023/09/10 13:41:43;;;;;;;7.00;6.47;;;30.50;42.60;;;;;;6212242;28;20250;-82
2023/09/10 13:44:46;;;;;;;5.45;5.15;;;30.50;42.10;;;;;;6201954;28;20231;-79
2023/09/10 13:47:51;;;;;;;7.28;6.68;;;30.60;41.30;;;;;;6208580;28;20247;-85
2023/09/10 13:50:54;;;;;;;6.85;6.43;;;30.60;41.80;;;;;;6206474;28;20242;-81
2023/09/10 13:53:58;;;;;;;6.63;6.22;;;30.60;41.30;;;;;;6213631;28;20266;-80
2023/09/10 13:57:04;;;;;;;7.97;5.65;;;30.60;41.60;;;;;;6214904;28;20257;-82
2023/09/10 14:00:09;;;;;;;6.40;5.80;;;30.70;41.40;;;;;;6214493;28;20305;-81
2023/09/10 14:03:13;;;;;;;6.55;5.93;;;30.70;40.70;;;;;;6210634;28;20235;-78
2023/09/10 14:06:17;;;;;;;6.55;6.03;;;30.70;41.20;;;;;;6205561;28;20228;-80
2023/09/10 14:09:20;;;;;;;6.80;6.30;;;30.80;42.00;;;;;;6215019;28;20242;-79
2023/09/10 14:12:23;;;;;;;9.48;6.80;;;30.70;41.80;;;;;;6211528;28;20351;-82
2023/09/10 14:15:28;;;;;;;5.55;5.25;;;30.70;42.50;;;;;;6214715;28;20235;-79
2023/09/10 14:18:33;;;;;;;6.00;5.70;;;30.80;41.40;;;;;;6209080;28;20331;-82
2023/09/10 14:21:38;;;;;;;6.30;5.80;;;30.70;41.70;;;;;;6216827;28;20303;-81
2023/09/10 14:24:41;;;;;;;6.70;6.20;;;30.60;42.20;;;;;;6209612;28;20235;-80
2023/09/10 14:27:44;;;;;;;6.40;6.10;;;30.70;42.00;;;;;;6202063;28;20228;-79
2023/09/10 14:30:47;;;;;;;6.47;5.97;;;30.70;42.70;;;;;;6210170;28;20262;-82
2023/09/10 14:33:52;;;;;;;9.00;5.78;;;30.50;42.10;;;;;;6208313;28;20828;-79
2023/09/10 14:36:56;;;;;;;5.90;5.43;;;30.50;42.50;;;;;;6203357;28;20278;-82
2023/09/10 14:39:59;;;;;;;6.60;6.20;;;30.50;41.50;;;;;;6221905;28;20243;-78
2023/09/10 14:43:02;;;;;;;5.95;5.45;;;30.50;41.30;;;;;;6203170;28;20322;-78
2023/09/10 14:49:34;;;;;;;6.15;5.85;;;30.60;41.70;;;;;;6194097;28;20305;-83
2023/09/10 14:52:55;;;;;;;5.60;5.40;;;30.60;42.40;;;;;;6200132;28;20661;-84
2023/09/10 14:56:03;;;;;;;5.53;5.22;;;30.30;42.20;;;;;;6210013;28;20232;-83
2023/09/10 14:59:12;;;;;;;6.18;5.70;;;30.30;41.90;;;;;;6177090;28;20246;-81
2023/09/10 15:02:17;;;;;;;5.82;5.53;;;30.30;42.10;;;;;;6209148;28;20251;-75
2023/09/10 15:05:22;;;;;;;6.38;5.88;;;30.10;42.90;;;;;;6212090;28;20239;-75
2023/09/10 15:08:25;;;;;;;6.68;6.15;;;30.10;43.00;;;;;;6209993;28;20243;-74
2023/09/10 15:11:28;;;;;;;6.20;5.85;;;30.10;42.30;;;;;;6204303;28;20448;-74
2023/09/10 15:14:32;;;;;;;5.97;5.47;;;30.10;42.40;;;;;;6206966;28;20247;-75
2023/09/10 15:17:36;;;;;;;6.22;5.82;;;30.00;42.40;;;;;;6202846;28;20258;-76
2023/09/10 15:20:40;;;;;;;6.40;6.10;;;30.00;42.30;;;;;;6209232;28;20738;-75
2023/09/10 15:23:44;;;;;;;6.05;5.72;;;30.10;42.60;;;;;;6202133;28;20624;-77
2023/09/10 15:26:47;;;;;;;5.93;5.38;;;30.10;42.30;;;;;;6210080;28;20263;-75
2023/09/10 15:29:51;;;;;;;5.90;5.63;;;30.00;42.60;;;;;;6203772;28;20243;-77
2023/09/10 15:32:54;;;;;;;6.32;6.03;;;29.90;43.20;;;;;;6200904;28;20247;-74
2023/09/10 15:35:59;;;;;;;6.80;6.40;;;29.70;43.40;;;;;;6206318;28;20235;-77
2023/09/10 15:39:03;;;;;;;6.28;5.95;;;29.60;43.80;;;;;;6207272;28;20301;-75
2023/09/10 15:42:07;;;;;;;6.18;5.78;;;29.50;43.70;;;;;;6208602;28;20322;-76
2023/09/10 15:45:12;;;;;;;6.65;6.15;;;29.30;44.60;;;;;;6208444;28;20375;-75
2023/09/10 15:48:16;;;;;;;6.25;5.82;;;29.10;45.40;;;;;;6213158;28;20656;-76
2023/09/10 15:51:20;;;;;;;6.03;5.72;;;28.90;46.20;;;;;;6214406;28;20231;-76